Time;durP1;ratioP1;P1;durP2;ratioP2;P2;SDS_P1;SDS_P2;PMS_P1;PMS_P2;Temp;Humidity;BMP_temperature;BMP_pressure;BME280_temperature;BME280_humidity;BME280_pressure;Samples;Min_cycle;Max_cycle;Signal;HPM_P1;HPM_P2
2023/10/30 00:19:13;;;;;;;;;;;;;;;;;;;;;
2023/10/30 00:22:27;;;;;;;3.23;1.33;;;20.20;64.40;;;;;;4907542;29;20560;-82
2023/10/30 00:25:04;;;;;;;1.80;1.00;;;20.20;64.30;;;;;;4976243;23;20493;-77
2023/10/30 00:27:32;;;;;;;1.50;1.40;;;20.10;64.10;;;;;;4992684;28;20453;-76
2023/10/30 00:30:00;;;;;;;1.77;1.17;;;20.20;64.10;;;;;;4995836;28;20433;-77
2023/10/30 00:32:28;;;;;;;1.57;1.33;;;20.10;63.90;;;;;;4995538;28;20473;-77
2023/10/30 00:34:56;;;;;;;3.00;1.10;;;20.10;64.10;;;;;;5006894;28;20476;-76
2023/10/30 00:37:24;;;;;;;1.10;1.00;;;20.10;63.90;;;;;;5016409;28;20483;-77
2023/10/30 00:39:52;;;;;;;1.30;1.20;;;20.10;64.80;;;;;;5007243;28;20507;-78
2023/10/30 00:42:25;;;;;;;2.10;1.20;;;20.10;64.00;;;;;;4999692;28;20475;-78
2023/10/30 00:44:53;;;;;;;2.73;1.13;;;20.10;64.10;;;;;;5006121;28;20547;-77
2023/10/30 00:47:22;;;;;;;1.80;1.43;;;20.10;64.10;;;;;;5019309;28;20487;-78
2023/10/30 00:49:50;;;;;;;1.37;1.13;;;20.10;64.00;;;;;;5014968;28;20437;-78
2023/10/30 00:52:18;;;;;;;3.83;1.30;;;20.10;63.80;;;;;;5003747;28;20519;-78
2023/10/30 00:54:46;;;;;;;5.50;1.07;;;20.10;63.90;;;;;;5003140;28;20499;-78
2023/10/30 00:57:14;;;;;;;1.30;1.20;;;20.00;63.80;;;;;;5003694;28;20441;-78
2023/10/30 00:59:43;;;;;;;3.23;1.30;;;20.00;63.60;;;;;;5010095;28;20437;-78
2023/10/30 01:02:11;;;;;;;1.10;1.00;;;20.00;63.70;;;;;;5014116;28;20445;-78
2023/10/30 01:04:39;;;;;;;4.43;1.20;;;20.00;63.70;;;;;;5009846;28;20467;-78
2023/10/30 01:07:08;;;;;;;1.97;1.00;;;20.00;63.60;;;;;;5020232;28;20506;-79
2023/10/30 01:09:36;;;;;;;2.10;1.00;;;20.00;63.20;;;;;;5008245;28;20469;-78
2023/10/30 01:12:04;;;;;;;2.57;1.20;;;20.00;63.70;;;;;;5004572;28;20455;-77
2023/10/30 01:14:32;;;;;;;2.87;1.50;;;19.90;63.70;;;;;;5006058;28;20457;-77
2023/10/30 01:17:02;;;;;;;3.70;1.10;;;20.00;63.70;;;;;;5011487;28;20503;-78
2023/10/30 01:19:30;;;;;;;2.53;1.43;;;19.90;63.50;;;;;;5003801;28;20450;-77
2023/10/30 01:21:59;;;;;;;2.00;1.13;;;19.90;63.90;;;;;;5003731;28;20540;-76
2023/10/30 01:24:27;;;;;;;2.10;1.30;;;19.90;63.50;;;;;;5014062;28;20527;-76
2023/10/30 01:26:54;;;;;;;3.93;1.20;;;19.90;63.50;;;;;;5013992;28;20441;-78
2023/10/30 01:29:23;;;;;;;2.20;1.20;;;19.90;63.40;;;;;;5014983;28;20515;-78
2023/10/30 01:31:50;;;;;;;1.37;1.17;;;19.90;64.20;;;;;;5016296;28;20452;-77
2023/10/30 01:34:19;;;;;;;3.00;1.20;;;19.90;63.20;;;;;;4998843;28;20509;-77
2023/10/30 01:36:48;;;;;;;2.73;1.13;;;19.90;63.50;;;;;;5017985;28;20439;-76
2023/10/30 01:39:15;;;;;;;1.80;1.17;;;19.90;63.30;;;;;;5021490;28;20464;-77
2023/10/30 01:41:43;;;;;;;3.50;1.10;;;19.90;63.40;;;;;;5007397;28;20445;-77
2023/10/30 01:44:12;;;;;;;2.03;1.50;;;19.90;63.40;;;;;;5004323;28;20465;-77
2023/10/30 01:46:39;;;;;;;2.53;1.03;;;19.90;63.50;;;;;;5017087;28;20490;-77
2023/10/30 01:49:08;;;;;;;1.30;1.20;;;19.90;63.50;;;;;;5016444;28;20444;-77
2023/10/30 01:51:37;;;;;;;1.60;1.07;;;19.90;63.30;;;;;;5000860;28;20461;-77
2023/10/30 01:54:06;;;;;;;1.00;1.00;;;19.90;63.50;;;;;;5013548;28;20512;-77
2023/10/30 01:56:34;;;;;;;1.30;1.03;;;19.90;63.30;;;;;;5008281;28;20524;-77
2023/10/30 01:59:02;;;;;;;3.30;1.27;;;19.90;63.70;;;;;;5002956;28;20432;-77
2023/10/30 02:01:30;;;;;;;2.27;1.20;;;19.80;63.20;;;;;;5009068;28;20441;-77
2023/10/30 02:03:58;;;;;;;1.40;1.30;;;19.80;63.30;;;;;;5009733;28;20841;-77
2023/10/30 02:06:27;;;;;;;1.87;1.20;;;19.80;63.50;;;;;;5002920;28;20458;-77
2023/10/30 02:08:57;;;;;;;1.30;1.20;;;19.80;63.00;;;;;;5005024;28;20460;-77
2023/10/30 02:11:24;;;;;;;3.70;1.27;;;19.80;63.20;;;;;;5002671;28;20445;-77
2023/10/30 02:13:56;;;;;;;3.33;1.40;;;19.80;63.40;;;;;;5013712;28;20985;-77
2023/10/30 02:16:24;;;;;;;2.07;1.10;;;19.80;63.30;;;;;;4992810;28;20561;-78
2023/10/30 02:18:52;;;;;;;1.70;1.43;;;19.80;63.00;;;;;;5005620;28;20460;-78
2023/10/30 02:21:20;;;;;;;3.23;1.40;;;19.80;63.40;;;;;;5003354;28;20436;-78
2023/10/30 02:23:48;;;;;;;3.77;1.20;;;19.80;63.60;;;;;;5015639;28;20459;-78
2023/10/30 02:26:18;;;;;;;1.60;1.20;;;19.80;63.30;;;;;;5013427;28;20503;-78
2023/10/30 02:28:46;;;;;;;2.30;1.20;;;19.80;63.30;;;;;;5006601;28;20965;-79
2023/10/30 02:31:14;;;;;;;3.00;1.30;;;19.80;63.30;;;;;;5006874;28;20471;-78
2023/10/30 02:33:42;;;;;;;3.30;1.30;;;19.80;63.20;;;;;;5007140;28;20497;-77
2023/10/30 02:36:11;;;;;;;2.73;1.10;;;19.80;63.40;;;;;;5016542;28;20475;-78
2023/10/30 02:38:39;;;;;;;1.40;1.30;;;19.70;63.30;;;;;;5007971;28;20500;-78
2023/10/30 02:41:07;;;;;;;2.70;1.33;;;19.70;63.10;;;;;;5020760;28;20459;-77
2023/10/30 02:43:37;;;;;;;2.60;1.90;;;19.70;63.20;;;;;;5000653;28;20455;-77
2023/10/30 02:46:05;;;;;;;3.30;2.10;;;19.80;63.40;;;;;;5009943;28;20475;-77
2023/10/30 02:48:34;;;;;;;5.90;2.20;;;19.70;63.10;;;;;;5000513;28;20445;-78
2023/10/30 02:51:02;;;;;;;3.50;1.60;;;19.70;63.20;;;;;;5014375;28;20444;-78
2023/10/30 02:53:30;;;;;;;3.90;2.17;;;19.70;63.10;;;;;;5000955;28;20576;-76
2023/10/30 02:56:00;;;;;;;4.33;2.47;;;19.70;63.10;;;;;;5003822;28;20455;-77
2023/10/30 02:58:28;;;;;;;4.10;2.30;;;19.70;63.00;;;;;;5004675;28;20466;-77
2023/10/30 03:00:58;;;;;;;3.60;2.73;;;19.70;63.70;;;;;;5012511;28;20432;-77
2023/10/30 03:03:26;;;;;;;4.57;2.53;;;19.70;62.90;;;;;;5001318;28;20422;-77
2023/10/30 03:05:55;;;;;;;3.37;2.67;;;19.70;63.10;;;;;;5008125;28;20468;-77
2023/10/30 03:08:25;;;;;;;6.60;3.20;;;19.70;62.90;;;;;;5010997;28;20449;-78
2023/10/30 03:10:53;;;;;;;4.03;2.83;;;19.70;62.90;;;;;;5007896;28;20467;-77
2023/10/30 03:13:21;;;;;;;5.57;3.00;;;19.70;63.00;;;;;;5006809;28;20480;-78
2023/10/30 03:15:49;;;;;;;4.20;2.87;;;19.70;62.90;;;;;;5006831;28;20518;-79
2023/10/30 03:18:18;;;;;;;4.40;3.33;;;19.70;62.90;;;;;;5010810;28;20429;-77
2023/10/30 03:20:46;;;;;;;5.00;2.97;;;19.70;62.80;;;;;;5016689;28;20440;-78
2023/10/30 03:23:14;;;;;;;7.00;2.97;;;19.70;63.00;;;;;;5004134;28;20524;-77
2023/10/30 03:25:42;;;;;;;6.47;3.07;;;19.70;63.10;;;;;;4999675;28;21013;-79
2023/10/30 03:28:11;;;;;;;5.23;2.87;;;19.70;62.90;;;;;;5005768;28;20448;-78
2023/10/30 03:30:39;;;;;;;4.70;3.00;;;19.70;63.00;;;;;;5016569;28;20460;-78
2023/10/30 03:33:07;;;;;;;6.53;3.40;;;19.70;63.00;;;;;;5006593;28;20448;-77
2023/10/30 03:35:38;;;;;;;8.70;3.20;;;19.70;63.00;;;;;;5016338;28;20480;-77
2023/10/30 03:38:06;;;;;;;2.83;2.50;;;19.70;62.90;;;;;;4999925;28;20467;-77
2023/10/30 03:40:34;;;;;;;5.80;2.93;;;19.70;63.20;;;;;;5004276;28;20467;-77
2023/10/30 03:43:02;;;;;;;6.20;3.33;;;19.70;62.80;;;;;;5012594;28;20468;-77
2023/10/30 03:45:30;;;;;;;4.90;3.20;;;19.70;63.00;;;;;;5009627;28;20488;-78
2023/10/30 03:47:58;;;;;;;7.97;3.83;;;19.70;63.10;;;;;;5009535;28;20526;-78
2023/10/30 03:50:27;;;;;;;3.80;2.87;;;19.70;62.90;;;;;;5004553;28;20576;-77
2023/10/30 03:52:56;;;;;;;4.47;3.00;;;19.70;62.90;;;;;;5006340;28;20448;-79
2023/10/30 03:55:24;;;;;;;10.03;2.73;;;19.70;62.90;;;;;;5008909;28;20575;-79
2023/10/30 03:57:53;;;;;;;7.30;3.20;;;19.70;62.80;;;;;;5009362;28;20494;-76
2023/10/30 04:00:21;;;;;;;3.77;3.00;;;19.70;62.90;;;;;;5013490;28;20520;-77
2023/10/30 04:02:49;;;;;;;5.60;3.07;;;19.70;62.90;;;;;;5006002;28;20447;-76
2023/10/30 04:05:17;;;;;;;3.23;2.90;;;19.70;62.60;;;;;;5011637;28;20834;-77
2023/10/30 04:07:45;;;;;;;5.07;2.50;;;19.70;63.00;;;;;;5012166;28;20512;-76
2023/10/30 04:10:14;;;;;;;4.13;2.70;;;19.70;62.80;;;;;;4995629;28;20622;-77
2023/10/30 04:12:43;;;;;;;5.27;2.50;;;19.70;63.10;;;;;;5007478;28;20476;-77
2023/10/30 04:15:11;;;;;;;5.10;2.87;;;19.70;62.90;;;;;;5007986;28;20480;-77
2023/10/30 04:17:39;;;;;;;5.30;2.80;;;19.70;63.10;;;;;;5002341;28;20453;-77
2023/10/30 04:20:08;;;;;;;2.67;2.30;;;19.70;63.20;;;;;;5006674;28;20441;-78
2023/10/30 04:22:36;;;;;;;4.03;2.40;;;19.70;63.10;;;;;;4999541;28;20440;-77
2023/10/30 04:25:06;;;;;;;3.87;2.50;;;19.70;63.60;;;;;;5026976;28;20468;-77
2023/10/30 04:27:35;;;;;;;11.93;3.33;;;19.70;63.00;;;;;;5008537;28;20448;-77
2023/10/30 04:30:04;;;;;;;6.20;2.97;;;19.70;63.10;;;;;;5015538;28;20531;-76
2023/10/30 04:32:33;;;;;;;8.57;2.90;;;19.60;63.30;;;;;;5014797;28;20494;-77
2023/10/30 04:35:01;;;;;;;3.50;2.53;;;19.70;63.40;;;;;;5019364;28;20471;-78
2023/10/30 04:37:29;;;;;;;3.20;2.40;;;19.70;63.20;;;;;;5007996;28;20468;-77
2023/10/30 04:39:57;;;;;;;6.90;3.00;;;19.70;63.10;;;;;;5024105;28;20538;-77
2023/10/30 04:42:27;;;;;;;8.27;3.10;;;19.70;63.40;;;;;;5006448;28;20509;-77
2023/10/30 04:44:57;;;;;;;5.47;2.60;;;19.70;63.20;;;;;;5015019;28;20488;-76
2023/10/30 04:47:25;;;;;;;5.03;2.60;;;19.70;63.30;;;;;;5007081;28;20482;-76
2023/10/30 04:49:54;;;;;;;3.77;2.60;;;19.70;63.30;;;;;;5013372;28;20453;-77
2023/10/30 04:52:23;;;;;;;2.93;2.33;;;19.70;63.10;;;;;;5015438;28;20439;-79
2023/10/30 04:54:51;;;;;;;4.80;2.30;;;19.70;63.40;;;;;;5008283;28;20563;-75
2023/10/30 04:57:20;;;;;;;4.13;2.37;;;19.70;63.20;;;;;;5014108;28;20452;-77
2023/10/30 04:59:48;;;;;;;2.43;2.17;;;19.70;63.60;;;;;;5012647;28;20447;-77
2023/10/30 05:02:18;;;;;;;4.83;2.83;;;19.70;63.30;;;;;;5002142;28;20453;-78
2023/10/30 05:04:45;;;;;;;5.00;2.87;;;19.70;63.40;;;;;;5012243;28;20484;-78
2023/10/30 05:07:13;;;;;;;8.33;2.60;;;19.70;63.50;;;;;;5007488;28;20437;-78
2023/10/30 05:09:41;;;;;;;3.03;2.40;;;19.70;63.40;;;;;;5001325;28;20460;-77
2023/10/30 05:12:09;;;;;;;7.83;2.43;;;19.70;63.30;;;;;;5005957;28;20941;-78
2023/10/30 05:14:37;;;;;;;4.23;2.40;;;19.60;63.60;;;;;;5013936;28;20476;-78
2023/10/30 05:17:05;;;;;;;6.30;2.20;;;19.60;63.50;;;;;;5014570;28;20479;-77
2023/10/30 05:19:35;;;;;;;6.13;2.20;;;19.60;63.50;;;;;;5005934;28;20436;-78
2023/10/30 05:22:04;;;;;;;5.00;2.23;;;19.60;63.30;;;;;;5011518;28;20485;-78
2023/10/30 05:24:32;;;;;;;4.97;2.43;;;19.60;63.60;;;;;;5018274;28;20495;-78
2023/10/30 05:27:00;;;;;;;4.37;2.20;;;19.60;63.50;;;;;;5004841;28;20450;-78
2023/10/30 05:29:28;;;;;;;4.23;2.30;;;19.70;63.40;;;;;;5004558;28;20506;-77
2023/10/30 05:31:56;;;;;;;6.03;2.70;;;19.60;63.50;;;;;;5001859;28;20527;-78
2023/10/30 05:34:26;;;;;;;3.03;2.20;;;19.60;63.40;;;;;;5010788;28;20484;-77
2023/10/30 05:36:56;;;;;;;4.80;2.40;;;19.60;63.80;;;;;;5009364;28;20437;-77
2023/10/30 05:39:23;;;;;;;4.33;2.37;;;19.60;63.60;;;;;;5004939;28;20475;-77
2023/10/30 05:41:51;;;;;;;7.60;2.50;;;19.60;63.70;;;;;;5014841;28;20467;-76
2023/10/30 05:44:19;;;;;;;4.90;2.37;;;19.60;63.80;;;;;;5013698;28;20464;-77
2023/10/30 05:46:47;;;;;;;5.50;2.07;;;19.60;63.60;;;;;;5014469;28;20531;-77
2023/10/30 05:49:15;;;;;;;5.67;2.70;;;19.60;63.60;;;;;;5010447;28;20453;-77
2023/10/30 05:51:44;;;;;;;6.60;2.40;;;19.60;63.70;;;;;;5008217;28;21038;-79
2023/10/30 05:54:16;;;;;;;3.37;2.20;;;19.60;63.70;;;;;;5010912;28;20473;-79
2023/10/30 05:56:44;;;;;;;6.83;2.00;;;19.60;63.80;;;;;;5009225;28;20468;-78
2023/10/30 05:59:13;;;;;;;7.40;2.33;;;19.50;63.50;;;;;;5006440;28;20473;-77
2023/10/30 06:01:41;;;;;;;4.53;2.00;;;19.50;63.80;;;;;;5008266;28;20543;-77
2023/10/30 06:04:09;;;;;;;2.83;2.20;;;19.60;63.40;;;;;;5005364;28;20467;-78
2023/10/30 06:06:37;;;;;;;4.27;2.20;;;19.50;63.60;;;;;;5002577;28;20464;-78
2023/10/30 06:09:06;;;;;;;7.90;2.30;;;19.50;63.80;;;;;;4989276;28;20441;-78
2023/10/30 06:11:35;;;;;;;6.93;2.23;;;19.50;63.80;;;;;;5011620;28;20458;-78
2023/10/30 06:14:03;;;;;;;5.60;2.20;;;19.50;63.50;;;;;;5019267;28;20464;-79
2023/10/30 06:16:31;;;;;;;3.83;2.30;;;19.50;63.60;;;;;;5003774;28;20469;-78
2023/10/30 06:18:59;;;;;;;4.83;1.80;;;19.50;63.90;;;;;;5007017;28;20527;-79
2023/10/30 06:21:27;;;;;;;3.33;2.10;;;19.50;63.80;;;;;;5014721;28;20441;-78
2023/10/30 06:23:55;;;;;;;3.27;1.93;;;19.50;63.90;;;;;;5008562;28;20446;-78
2023/10/30 06:26:23;;;;;;;9.77;2.43;;;19.50;64.10;;;;;;5009719;28;20515;-78
2023/10/30 06:28:52;;;;;;;6.83;2.40;;;19.50;63.90;;;;;;5017594;23;20575;-73
2023/10/30 06:31:20;;;;;;;5.00;1.93;;;19.50;63.90;;;;;;4993357;28;20532;-73
2023/10/30 06:33:49;;;;;;;6.93;2.17;;;19.50;64.10;;;;;;4997515;28;20488;-73
2023/10/30 06:36:17;;;;;;;4.40;2.07;;;19.50;63.90;;;;;;4992424;28;20477;-74
2023/10/30 06:38:45;;;;;;;2.70;1.60;;;19.50;63.80;;;;;;5007662;28;20460;-73
2023/10/30 06:41:13;;;;;;;3.57;2.17;;;19.50;63.90;;;;;;5010544;28;20518;-73
2023/10/30 06:43:42;;;;;;;3.90;2.13;;;19.50;64.10;;;;;;5010504;28;20816;-73
2023/10/30 06:46:11;;;;;;;4.30;2.13;;;19.50;64.10;;;;;;5013343;28;20527;-74
2023/10/30 06:48:39;;;;;;;4.10;1.90;;;19.40;63.70;;;;;;5010747;28;21063;-73
2023/10/30 06:51:07;;;;;;;4.10;2.00;;;19.40;63.70;;;;;;5011506;28;20448;-73
2023/10/30 06:53:35;;;;;;;5.37;1.90;;;19.40;64.20;;;;;;5011970;28;20472;-73
2023/10/30 06:56:03;;;;;;;2.70;1.90;;;19.40;64.00;;;;;;5017816;28;20557;-74
2023/10/30 06:58:31;;;;;;;4.17;2.07;;;19.50;64.00;;;;;;5011164;28;20456;-74
2023/10/30 07:01:03;;;;;;;3.00;1.80;;;19.40;64.00;;;;;;5012802;28;20449;-73
2023/10/30 07:03:33;;;;;;;4.90;1.83;;;19.50;63.80;;;;;;5024307;28;20447;-75
2023/10/30 07:06:02;;;;;;;5.80;1.97;;;19.50;64.10;;;;;;5011442;28;20440;-74
2023/10/30 07:08:30;;;;;;;3.67;2.03;;;19.50;63.90;;;;;;5011306;28;20512;-74
2023/10/30 07:10:58;;;;;;;3.57;1.80;;;19.50;64.10;;;;;;5011343;28;20441;-74
2023/10/30 07:13:25;;;;;;;5.33;2.00;;;19.40;63.90;;;;;;5011617;28;20444;-74
2023/10/30 07:15:53;;;;;;;3.67;1.93;;;19.50;64.10;;;;;;5006698;28;21041;-74
2023/10/30 07:18:22;;;;;;;5.43;1.97;;;19.40;63.90;;;;;;5013478;28;20470;-74
2023/10/30 07:20:51;;;;;;;4.53;2.37;;;19.50;63.90;;;;;;5006539;28;20512;-74
2023/10/30 07:23:19;;;;;;;4.70;1.80;;;19.50;63.90;;;;;;4998468;28;20436;-74
2023/10/30 07:25:47;;;;;;;4.40;1.87;;;19.50;63.80;;;;;;5009450;28;20540;-74
2023/10/30 07:28:16;;;;;;;3.50;1.70;;;19.50;63.90;;;;;;5009912;28;20562;-74
2023/10/30 07:30:44;;;;;;;4.07;2.23;;;19.50;63.90;;;;;;5006088;28;20449;-74
2023/10/30 07:33:12;;;;;;;2.70;1.60;;;19.50;63.90;;;;;;5005208;28;20493;-74
2023/10/30 07:35:40;;;;;;;5.10;1.77;;;19.50;63.90;;;;;;5009783;28;20436;-74
2023/10/30 07:38:09;;;;;;;2.70;1.53;;;19.60;63.90;;;;;;5011037;28;20461;-74
2023/10/30 07:40:38;;;;;;;2.43;2.07;;;19.60;63.90;;;;;;5010123;28;20452;-74
2023/10/30 07:43:06;;;;;;;3.97;1.57;;;19.60;63.80;;;;;;5011119;28;20872;-74
2023/10/30 07:45:35;;;;;;;4.43;1.80;;;19.60;64.00;;;;;;5008111;28;20467;-75
2023/10/30 07:48:06;;;;;;;3.70;1.70;;;19.60;64.00;;;;;;5010797;28;20464;-74
2023/10/30 07:50:35;;;;;;;4.10;1.97;;;19.70;63.70;;;;;;5011581;28;20428;-74
2023/10/30 07:53:03;;;;;;;5.07;2.07;;;19.70;63.90;;;;;;5011957;28;20437;-74
2023/10/30 07:55:33;;;;;;;2.50;1.40;;;19.70;63.70;;;;;;5011064;28;20432;-74
2023/10/30 07:58:01;;;;;;;2.03;1.80;;;19.60;63.90;;;;;;5001165;28;20480;-74
2023/10/30 08:00:29;;;;;;;3.27;1.73;;;19.70;63.90;;;;;;5015528;28;20452;-74
2023/10/30 08:03:07;;;;;;;2.67;1.80;;;19.70;63.90;;;;;;5017862;28;20440;-74
2023/10/30 08:05:35;;;;;;;6.47;2.07;;;19.80;64.10;;;;;;5012715;28;20436;-75
2023/10/30 08:08:04;;;;;;;3.67;1.80;;;19.80;64.00;;;;;;5015424;28;20488;-74
2023/10/30 08:10:33;;;;;;;2.57;1.80;;;19.90;63.90;;;;;;5015385;28;20448;-74
2023/10/30 08:13:00;;;;;;;8.00;2.07;;;20.00;64.10;;;;;;5004138;28;20444;-74
2023/10/30 08:15:28;;;;;;;2.80;1.97;;;20.00;64.00;;;;;;5015226;28;20534;-74
2023/10/30 08:17:57;;;;;;;6.87;1.70;;;20.10;64.00;;;;;;5008787;28;20483;-74
2023/10/30 08:20:25;;;;;;;3.43;2.10;;;20.20;64.00;;;;;;5010522;28;20459;-74
2023/10/30 08:22:53;;;;;;;4.17;1.83;;;20.20;64.00;;;;;;5013435;28;20510;-74
2023/10/30 08:25:21;;;;;;;3.73;2.10;;;20.30;63.90;;;;;;5014066;28;20559;-74
2023/10/30 08:27:50;;;;;;;4.70;1.80;;;20.40;64.20;;;;;;5015183;28;20567;-75
2023/10/30 08:30:18;;;;;;;3.77;1.80;;;20.50;64.30;;;;;;5011812;28;20545;-73
2023/10/30 08:32:46;;;;;;;4.90;1.90;;;20.60;64.30;;;;;;5008700;28;20460;-74
2023/10/30 08:35:15;;;;;;;2.77;1.53;;;20.70;64.60;;;;;;5006837;28;20441;-74
2023/10/30 08:37:43;;;;;;;5.13;1.73;;;20.90;64.70;;;;;;5010769;28;20542;-74
2023/10/30 08:40:12;;;;;;;4.47;1.93;;;21.00;64.80;;;;;;5013242;28;20536;-74
2023/10/30 08:42:40;;;;;;;3.27;1.83;;;21.20;64.80;;;;;;5013775;28;20468;-74
2023/10/30 08:45:10;;;;;;;6.83;2.20;;;21.40;64.90;;;;;;5013217;28;20440;-74
2023/10/30 08:47:39;;;;;;;5.30;1.70;;;21.60;64.90;;;;;;5012961;28;20539;-74
2023/10/30 08:50:09;;;;;;;4.90;1.80;;;21.80;65.00;;;;;;5006576;28;20447;-73
2023/10/30 08:52:38;;;;;;;3.80;2.03;;;22.00;65.00;;;;;;5013693;28;20468;-74
2023/10/30 08:55:06;;;;;;;4.23;1.90;;;22.20;64.80;;;;;;5021078;28;20469;-74
2023/10/30 08:57:34;;;;;;;2.20;1.40;;;22.40;64.80;;;;;;5014164;28;20458;-74
2023/10/30 09:00:06;;;;;;;4.50;1.80;;;22.60;64.60;;;;;;5014149;28;20432;-74
2023/10/30 09:02:35;;;;;;;4.30;2.10;;;22.80;64.40;;;;;;5007485;28;20483;-74
2023/10/30 09:05:03;;;;;;;7.90;1.77;;;23.00;64.30;;;;;;5011584;28;21010;-74
2023/10/30 09:07:31;;;;;;;3.43;1.43;;;23.10;64.10;;;;;;5012653;28;20460;-73
2023/10/30 09:10:00;;;;;;;8.73;2.00;;;23.40;64.10;;;;;;5012671;28;20462;-74
2023/10/30 09:12:27;;;;;;;3.73;1.90;;;23.50;63.80;;;;;;5020018;28;20455;-74
2023/10/30 09:14:55;;;;;;;3.63;1.60;;;23.70;63.80;;;;;;5013095;28;20410;-75
2023/10/30 09:17:23;;;;;;;2.03;1.40;;;23.90;63.60;;;;;;5012442;28;20555;-74
2023/10/30 09:19:53;;;;;;;5.53;1.80;;;24.00;63.40;;;;;;5012451;28;20448;-75
2023/10/30 09:22:20;;;;;;;3.90;1.67;;;24.20;63.30;;;;;;5013152;28;20536;-74
2023/10/30 09:24:48;;;;;;;4.70;2.13;;;24.30;63.00;;;;;;5013067;28;20506;-75
2023/10/30 09:27:16;;;;;;;4.73;1.63;;;24.50;63.00;;;;;;5012786;28;20483;-75
2023/10/30 09:29:44;;;;;;;6.47;2.10;;;24.70;62.90;;;;;;5013071;28;20423;-75
2023/10/30 09:32:14;;;;;;;5.33;2.00;;;24.80;62.60;;;;;;5012606;28;20451;-75
2023/10/30 09:34:42;;;;;;;2.40;1.70;;;24.90;62.40;;;;;;5012643;28;20425;-73
2023/10/30 09:37:11;;;;;;;2.70;1.90;;;25.10;62.40;;;;;;5011565;28;20484;-75
2023/10/30 09:39:39;;;;;;;2.60;1.60;;;25.20;62.20;;;;;;5013277;28;20483;-74
2023/10/30 09:42:08;;;;;;;3.33;1.50;;;25.40;62.00;;;;;;5010264;28;20474;-74
2023/10/30 09:44:36;;;;;;;6.10;1.67;;;25.50;61.70;;;;;;5012971;28;20418;-75
2023/10/30 09:47:04;;;;;;;2.40;1.60;;;25.50;61.40;;;;;;5007936;28;20467;-75
2023/10/30 09:49:32;;;;;;;2.57;1.80;;;25.60;61.20;;;;;;5014170;28;20455;-74
2023/10/30 09:52:01;;;;;;;3.47;1.80;;;25.70;61.20;;;;;;5012621;28;20538;-75
2023/10/30 09:54:30;;;;;;;2.83;1.70;;;25.70;61.10;;;;;;5012426;28;20423;-75
2023/10/30 09:57:00;;;;;;;2.97;1.83;;;25.70;60.90;;;;;;5004487;28;20452;-75
2023/10/30 09:59:27;;;;;;;3.03;1.50;;;25.80;61.00;;;;;;5006395;28;20552;-75
2023/10/30 10:01:55;;;;;;;3.47;1.60;;;25.90;60.80;;;;;;5012338;28;20518;-75
2023/10/30 10:04:23;;;;;;;5.67;2.17;;;26.00;60.70;;;;;;5013281;28;20511;-75
2023/10/30 10:06:52;;;;;;;4.30;1.70;;;26.20;60.40;;;;;;5003814;28;20503;-75
2023/10/30 10:09:20;;;;;;;2.50;1.50;;;26.30;60.20;;;;;;5011492;28;20434;-76
2023/10/30 10:11:50;;;;;;;4.73;1.90;;;26.40;60.00;;;;;;5011024;28;20415;-75
2023/10/30 10:14:21;;;;;;;3.03;1.40;;;26.50;59.70;;;;;;5007682;28;20507;-76
2023/10/30 10:16:49;;;;;;;2.23;1.53;;;26.60;59.40;;;;;;5017361;28;20456;-76
2023/10/30 10:19:21;;;;;;;5.20;1.50;;;26.70;59.30;;;;;;5010136;28;20559;-76
2023/10/30 10:21:49;;;;;;;3.33;1.60;;;26.80;59.00;;;;;;5011878;28;20444;-76
2023/10/30 10:24:30;;;;;;;2.60;1.63;;;26.80;58.70;;;;;;5008429;28;20480;-76
2023/10/30 10:27:04;;;;;;;5.33;1.63;;;26.80;58.60;;;;;;5011980;28;20459;-76
2023/10/30 10:29:33;;;;;;;2.70;1.60;;;26.90;58.30;;;;;;5011579;28;20422;-75
2023/10/30 10:32:01;;;;;;;5.27;1.93;;;26.90;58.40;;;;;;5011891;28;20426;-76
2023/10/30 10:34:30;;;;;;;4.40;1.83;;;27.00;58.40;;;;;;5011704;28;20449;-76
2023/10/30 10:36:59;;;;;;;3.63;1.80;;;27.10;58.20;;;;;;5011632;28;20449;-76
2023/10/30 10:39:27;;;;;;;4.30;2.07;;;27.20;58.10;;;;;;5011662;28;20977;-76
2023/10/30 10:41:55;;;;;;;4.43;1.73;;;27.40;58.00;;;;;;5011487;28;20513;-76
2023/10/30 10:44:25;;;;;;;6.30;2.27;;;27.50;57.80;;;;;;5004089;28;20467;-76
2023/10/30 10:46:59;;;;;;;3.33;1.87;;;27.70;57.70;;;;;;5008218;28;20506;-76
2023/10/30 10:49:26;;;;;;;3.47;1.70;;;27.80;57.30;;;;;;5012591;28;20519;-76
2023/10/30 10:51:54;;;;;;;5.50;1.80;;;27.80;56.70;;;;;;5011488;28;20502;-76
2023/10/30 10:54:24;;;;;;;4.40;1.87;;;27.90;56.80;;;;;;5016536;28;20444;-76
2023/10/30 10:56:53;;;;;;;4.00;2.20;;;28.00;56.50;;;;;;5011262;28;20452;-76
2023/10/30 10:59:22;;;;;;;3.87;1.60;;;28.10;56.40;;;;;;5004485;28;20974;-77
2023/10/30 11:01:52;;;;;;;5.17;1.83;;;28.10;56.30;;;;;;5010674;28;20423;-76
2023/10/30 11:04:20;;;;;;;2.13;1.57;;;28.20;55.70;;;;;;5002643;28;20429;-76
2023/10/30 11:06:51;;;;;;;4.57;2.43;;;28.30;55.30;;;;;;5010596;28;20898;-76
2023/10/30 11:09:22;;;;;;;3.60;1.90;;;28.30;55.60;;;;;;5009760;28;20509;-76
2023/10/30 11:11:53;;;;;;;2.40;1.73;;;28.60;55.50;;;;;;5012472;28;20467;-76
2023/10/30 11:14:39;;;;;;;7.10;2.00;;;28.80;55.00;;;;;;5011250;28;20472;-77
2023/10/30 11:17:09;;;;;;;4.10;2.03;;;28.90;54.20;;;;;;5010661;28;20484;-77
2023/10/30 11:19:37;;;;;;;2.20;1.70;;;29.00;53.80;;;;;;5010796;28;20535;-76
2023/10/30 11:22:05;;;;;;;4.77;1.83;;;29.10;53.60;;;;;;5007621;28;20568;-76
2023/10/30 11:24:38;;;;;;;2.10;1.70;;;29.10;53.40;;;;;;5015803;28;20439;-76
2023/10/30 11:27:36;;;;;;;2.80;1.80;;;29.30;53.40;;;;;;5019971;28;20527;-76
2023/10/30 11:30:11;;;;;;;2.87;1.90;;;29.20;52.90;;;;;;5012027;28;20415;-76
2023/10/30 11:32:57;;;;;;;2.97;2.10;;;29.00;52.70;;;;;;5006418;28;20444;-75
2023/10/30 11:35:25;;;;;;;5.70;2.23;;;28.90;53.00;;;;;;5015389;28;20447;-74
2023/10/30 11:37:53;;;;;;;6.07;2.27;;;28.70;52.70;;;;;;5006475;28;20487;-76
2023/10/30 11:40:21;;;;;;;3.67;2.07;;;28.50;52.90;;;;;;5005260;28;20443;-76
2023/10/30 11:42:54;;;;;;;8.77;1.80;;;28.30;53.50;;;;;;5012597;28;20432;-76
2023/10/30 11:45:24;;;;;;;4.10;1.80;;;28.20;53.50;;;;;;5010423;28;20439;-76
2023/10/30 11:48:02;;;;;;;4.30;2.07;;;28.00;53.40;;;;;;5007231;28;20456;-76
2023/10/30 11:50:34;;;;;;;7.50;2.20;;;27.80;53.80;;;;;;5008233;28;20451;-75
2023/10/30 11:53:07;;;;;;;3.83;1.83;;;27.60;53.90;;;;;;5005698;28;20419;-75
2023/10/30 11:55:37;;;;;;;5.00;2.13;;;27.40;54.20;;;;;;4995391;28;20446;-75
2023/10/30 11:58:04;;;;;;;3.13;1.53;;;27.40;54.50;;;;;;4999393;28;20542;-75
2023/10/30 12:00:34;;;;;;;4.90;2.20;;;27.30;54.30;;;;;;4999382;28;20464;-75
2023/10/30 12:03:03;;;;;;;2.40;1.60;;;27.10;54.40;;;;;;5007003;28;20422;-75
2023/10/30 12:05:32;;;;;;;2.50;1.80;;;27.10;54.70;;;;;;4999972;28;20419;-75
2023/10/30 12:08:01;;;;;;;4.10;1.80;;;27.00;54.80;;;;;;5005257;28;20438;-76
2023/10/30 12:10:29;;;;;;;5.27;2.27;;;26.90;54.80;;;;;;5010079;28;20548;-75
2023/10/30 12:12:57;;;;;;;3.53;1.83;;;26.80;55.20;;;;;;5004392;28;20599;-75
2023/10/30 12:15:26;;;;;;;3.10;2.00;;;26.80;55.00;;;;;;5004904;28;20510;-75
2023/10/30 12:17:54;;;;;;;7.60;2.20;;;26.70;55.20;;;;;;4995352;28;20469;-75
2023/10/30 12:20:24;;;;;;;5.87;1.90;;;26.70;55.20;;;;;;5004015;28;20446;-75
2023/10/30 12:22:55;;;;;;;6.23;2.13;;;26.70;55.30;;;;;;5007299;28;20536;-74
2023/10/30 12:25:23;;;;;;;5.17;2.17;;;26.70;55.30;;;;;;4997255;28;20544;-73
2023/10/30 12:28:14;;;;;;;5.57;2.13;;;26.70;55.10;;;;;;5023094;23;20587;-81
2023/10/30 12:37:40;;;;;;;4.00;1.97;;;26.40;54.90;;;;;;4928438;29;20468;-82
2023/10/30 12:40:26;;;;;;;3.33;1.83;;;26.50;55.30;;;;;;4947285;29;20475;-81
2023/10/30 12:43:17;;;;;;;4.77;2.40;;;26.70;55.00;;;;;;5012002;28;20447;-80
2023/10/30 12:46:13;;;;;;;5.80;1.90;;;26.90;54.80;;;;;;5025430;28;20426;-83
2023/10/30 12:49:07;;;;;;;3.07;1.70;;;27.00;54.20;;;;;;5032371;28;20446;-83
2023/10/30 12:51:39;;;;;;;3.03;1.93;;;27.10;54.00;;;;;;5030676;28;20426;-81
2023/10/30 12:54:26;;;;;;;6.70;2.00;;;27.00;53.90;;;;;;5028842;28;20522;-82
2023/10/30 12:57:00;;;;;;;5.47;2.03;;;27.00;54.10;;;;;;5033059;28;20984;-82
2023/10/30 13:06:16;;;;;;;2.77;2.07;;;27.30;54.60;;;;;;4961258;28;20433;-85
2023/10/30 13:08:47;;;;;;;6.20;2.33;;;27.80;54.20;;;;;;5029978;28;20514;-81
2023/10/30 13:11:17;;;;;;;4.03;2.33;;;28.10;53.30;;;;;;5031253;28;20460;-82
2023/10/30 13:13:49;;;;;;;3.13;2.10;;;28.10;52.80;;;;;;5039017;28;20486;-82
2023/10/30 13:20:34;;;;;;;3.97;2.00;;;28.00;52.80;;;;;;5028623;28;20482;-82
2023/10/30 13:23:58;;;;;;;4.80;2.30;;;27.90;52.90;;;;;;5024976;28;20460;-81
2023/10/30 13:26:53;;;;;;;3.00;1.90;;;27.80;52.90;;;;;;5029779;28;20452;-83
2023/10/30 13:29:35;;;;;;;6.43;2.17;;;27.80;53.00;;;;;;5020996;28;20544;-83
2023/10/30 13:32:07;;;;;;;3.43;2.50;;;27.70;52.70;;;;;;5015449;28;20473;-82
2023/10/30 13:39:10;;;;;;;4.47;2.20;;;27.30;53.40;;;;;;5027136;28;20471;-82
2023/10/30 13:42:13;;;;;;;2.50;2.30;;;27.10;53.60;;;;;;5028637;28;20439;-82